Time;durP1;ratioP1;P1;durP2;ratioP2;P2;SDS_P1;SDS_P2;PMS_P1;PMS_P2;Temp;Humidity;BMP_temperature;BMP_pressure;BME280_temperature;BME280_humidity;BME280_pressure;Samples;Min_cycle;Max_cycle;Signal;HPM_P1;HPM_P2
2020/12/14 00:00:00;;;;;;;14.07;6.07;;;;;;;-0.47;52.07;99945.38;10497054;28;20049;-52
2020/12/14 00:05:02;;;;;;;15.10;4.67;;;;;;;-0.53;51.82;99937.84;10496050;28;20040;-53
2020/12/14 00:10:06;;;;;;;14.00;4.40;;;;;;;-0.56;52.03;99948.28;10501756;28;20040;-53
2020/12/14 00:15:08;;;;;;;11.93;5.38;;;;;;;-0.65;51.93;99937.44;10505619;28;20044;-55
2020/12/14 00:20:10;;;;;;;12.20;5.00;;;;;;;-0.61;51.82;99926.97;10503973;28;20045;-53
2020/12/14 00:25:12;;;;;;;12.63;4.88;;;;;;;-0.45;51.79;99929.00;10503260;28;20075;-52
2020/12/14 00:30:14;;;;;;;10.55;4.05;;;;;;;-0.51;51.88;99918.00;10503803;28;20149;-52
2020/12/14 00:35:17;;;;;;;15.82;5.60;;;;;;;-0.53;52.01;99906.88;10504182;28;20409;-52
2020/12/14 00:40:18;;;;;;;12.07;5.75;;;;;;;-0.65;51.94;99906.47;10502314;28;20071;-53
2020/12/14 00:45:21;;;;;;;11.15;4.20;;;;;;;-0.76;51.92;99912.88;10503895;28;20048;-52
2020/12/14 00:50:23;;;;;;;7.88;2.88;;;;;;;-0.81;51.94;99916.50;10504202;28;20045;-52
2020/12/14 00:55:24;;;;;;;10.90;5.40;;;;;;;-0.99;51.77;99913.66;10502114;28;20068;-52
2020/12/14 01:00:27;;;;;;;11.35;4.50;;;;;;;-1.06;52.27;99904.44;10502503;28;20401;-53
2020/12/14 01:05:28;;;;;;;11.88;4.22;;;;;;;-1.01;52.20;99912.88;10501322;28;20056;-56
2020/12/14 01:10:30;;;;;;;14.45;5.53;;;;;;;-1.05;52.36;99897.53;10502040;28;20182;-52
2020/12/14 01:15:33;;;;;;;8.93;3.63;;;;;;;-1.09;51.81;99896.81;10503519;28;20044;-56
2020/12/14 01:20:34;;;;;;;10.20;4.53;;;;;;;-1.11;52.13;99892.59;10500904;28;20044;-52
2020/12/14 01:25:36;;;;;;;8.70;3.65;;;;;;;-1.14;51.87;99885.78;10501095;28;20056;-52
2020/12/14 01:30:38;;;;;;;11.43;3.85;;;;;;;-1.18;51.92;99887.63;10469083;28;20037;-51
2020/12/14 01:35:40;;;;;;;6.70;2.25;;;;;;;-1.18;52.05;99902.28;10487793;28;20052;-51
2020/12/14 01:40:42;;;;;;;12.00;4.70;;;;;;;-1.21;51.64;99871.44;10500269;28;20139;-52
2020/12/14 01:45:44;;;;;;;12.70;4.80;;;;;;;-1.12;51.71;99885.75;10502200;28;20056;-53
2020/12/14 01:50:46;;;;;;;9.18;3.97;;;;;;;-1.19;51.78;99900.59;10500501;28;20052;-52
2020/12/14 01:55:50;;;;;;;10.52;4.28;;;;;;;-1.23;51.82;99862.91;10500719;28;20425;-53
2020/12/14 02:00:53;;;;;;;9.02;3.55;;;;;;;-1.19;51.54;99869.66;10500543;28;20052;-52
2020/12/14 02:05:54;;;;;;;6.68;2.78;;;;;;;-1.18;51.38;99872.16;10499797;28;20064;-53
2020/12/14 02:10:56;;;;;;;8.13;3.58;;;;;;;-1.18;51.69;99871.31;10499313;28;20763;-53
2020/12/14 02:15:59;;;;;;;8.27;3.63;;;;;;;-1.15;51.51;99863.47;10498365;28;20098;-52
2020/12/14 02:21:00;;;;;;;9.63;4.25;;;;;;;-1.03;51.83;99873.38;10497690;28;20514;-52
2020/12/14 02:26:03;;;;;;;7.85;3.10;;;;;;;-1.04;51.19;99874.28;10498254;28;20059;-52
2020/12/14 02:31:04;;;;;;;7.88;3.15;;;;;;;-1.12;51.44;99860.78;10497931;28;20059;-55
2020/12/14 02:36:06;;;;;;;9.57;3.35;;;;;;;-1.04;51.78;99879.44;10499606;28;20056;-55
2020/12/14 02:41:09;;;;;;;10.07;3.92;;;;;;;-1.02;51.20;99851.81;10498195;28;20048;-52
2020/12/14 02:46:13;;;;;;;9.88;3.33;;;;;;;-0.95;51.77;99879.13;10497558;28;20397;-55
2020/12/14 02:51:17;;;;;;;8.45;3.03;;;;;;;-0.99;51.51;99869.78;10500052;28;20481;-52
2020/12/14 02:56:20;;;;;;;11.23;4.72;;;;;;;-0.93;51.24;99872.16;10497056;28;20065;-53
2020/12/14 03:01:21;;;;;;;5.75;2.53;;;;;;;-0.80;51.20;99876.88;10496444;28;20074;-52
2020/12/14 03:06:23;;;;;;;9.57;3.72;;;;;;;-0.90;51.28;99865.19;10456678;28;20393;-51
2020/12/14 03:11:26;;;;;;;9.77;4.20;;;;;;;-0.93;51.51;99863.56;10459954;28;20045;-52
2020/12/14 03:16:27;;;;;;;9.30;3.92;;;;;;;-0.76;51.59;99853.50;10455153;28;20064;-52
2020/12/14 03:21:29;;;;;;;8.98;3.33;;;;;;;-0.63;51.26;99861.63;10469949;28;20044;-51
2020/12/14 03:26:32;;;;;;;10.38;3.53;;;;;;;-0.69;50.90;99859.28;10498400;28;20135;-55
2020/12/14 03:31:34;;;;;;;9.20;3.72;;;;;;;-0.55;50.56;99864.78;10490875;28;20388;-53
2020/12/14 03:36:35;;;;;;;10.02;3.78;;;;;;;-0.72;51.12;99859.38;10457765;28;20064;-53
2020/12/14 03:41:38;;;;;;;9.27;3.08;;;;;;;-0.75;50.84;99856.91;10454001;28;20139;-52
2020/12/14 03:46:40;;;;;;;9.27;3.88;;;;;;;-0.77;51.06;99859.56;10461733;28;20136;-53
2020/12/14 03:51:41;;;;;;;9.65;4.40;;;;;;;-0.86;51.20;99853.88;10462871;28;20459;-55
2020/12/14 03:56:44;;;;;;;9.40;3.83;;;;;;;-0.79;51.21;99863.94;10463439;28;20456;-53
2020/12/14 04:01:46;;;;;;;9.40;3.40;;;;;;;-0.65;51.00;99871.16;10462091;28;20136;-54
2020/12/14 04:06:47;;;;;;;9.80;4.38;;;;;;;-0.57;50.78;99874.31;10462873;28;20110;-54
2020/12/14 04:11:50;;;;;;;12.82;3.17;;;;;;;-0.67;50.98;99862.66;10463222;28;20041;-53
2020/12/14 04:16:52;;;;;;;9.80;3.80;;;;;;;-0.70;51.19;99853.28;10460897;28;20052;-55
2020/12/14 04:21:54;;;;;;;11.85;4.55;;;;;;;-0.75;50.98;99841.41;10480331;28;20049;-52
2020/12/14 04:26:57;;;;;;;8.18;2.67;;;;;;;-0.83;51.55;99856.34;10503212;28;20501;-54
2020/12/14 04:31:58;;;;;;;11.93;3.70;;;;;;;-0.90;51.60;99847.13;10501912;28;20151;-51
2020/12/14 04:37:00;;;;;;;9.13;4.07;;;;;;;-0.98;51.35;99856.00;10503003;28;20049;-58
2020/12/14 04:42:02;;;;;;;11.07;4.10;;;;;;;-0.90;51.58;99835.06;10503022;28;20048;-54
2020/12/14 04:47:05;;;;;;;10.20;3.53;;;;;;;-0.81;51.29;99837.31;10501778;28;20083;-56
2020/12/14 04:52:07;;;;;;;14.40;5.03;;;;;;;-0.89;51.47;99848.81;10501519;28;20079;-53
2020/12/14 04:57:13;;;;;;;11.48;4.88;;;;;;;-0.87;51.82;99857.34;10501154;28;20405;-54
2020/12/14 05:02:14;;;;;;;8.90;3.83;;;;;;;-1.00;51.45;99854.38;10504140;28;20048;-53
2020/12/14 05:07:16;;;;;;;11.23;4.75;;;;;;;-1.17;51.57;99853.22;10503758;28;20098;-53
2020/12/14 05:12:20;;;;;;;11.98;4.63;;;;;;;-1.16;51.91;99848.91;10502287;28;20436;-53
2020/12/14 05:17:23;;;;;;;13.73;3.80;;;;;;;-1.13;51.65;99842.81;10502108;28;20098;-54
2020/12/14 05:22:25;;;;;;;11.48;4.60;;;;;;;-1.17;51.39;99831.72;10501366;28;20117;-53
2020/12/14 05:27:33;;;;;;;12.05;4.13;;;;;;;-1.27;51.85;99820.06;10500745;28;20093;-54
2020/12/14 05:32:35;;;;;;;10.77;3.75;;;;;;;-1.22;52.15;99825.91;10501410;28;20052;-52
2020/12/14 05:37:37;;;;;;;13.15;4.35;;;;;;;-1.16;51.94;99823.94;10501363;28;20122;-52
2020/12/14 05:42:43;;;;;;;11.32;4.20;;;;;;;-0.98;51.48;99842.25;10501002;28;20443;-53
2020/12/14 05:47:45;;;;;;;9.80;4.47;;;;;;;-1.06;51.75;99834.78;10500592;28;20055;-52
2020/12/14 05:52:52;;;;;;;11.05;4.80;;;;;;;-0.98;51.66;99829.38;10500740;28;20063;-55
2020/12/14 05:58:03;;;;;;;11.00;4.43;;;;;;;-0.97;51.89;99837.03;10499086;28;20053;-52
2020/12/14 06:03:06;;;;;;;10.75;4.20;;;;;;;-1.08;51.95;99831.41;10459402;28;20045;-59
2020/12/14 06:08:23;;;;;;;12.20;5.00;;;;;;;-1.03;52.29;99823.50;10457618;28;20049;-56
2020/12/14 06:13:31;;;;;;;13.55;5.05;;;;;;;-0.96;51.90;99815.47;10456489;28;20432;-53
2020/12/14 06:18:34;;;;;;;10.30;4.05;;;;;;;-1.01;51.69;99820.00;10456926;28;20478;-52
2020/12/14 06:23:42;;;;;;;14.33;5.47;;;;;;;-1.04;51.95;99821.84;10489639;28;20054;-53
2020/12/14 06:28:51;;;;;;;19.40;4.30;;;;;;;-0.88;51.54;99820.38;10498241;28;20044;-52
2020/12/14 06:33:53;;;;;;;11.05;5.32;;;;;;;-0.66;51.64;99820.44;10498363;28;20129;-54
2020/12/14 06:38:55;;;;;;;18.92;7.40;;;;;;;-0.55;50.98;99820.03;10498655;28;20143;-54
2020/12/14 06:44:06;;;;;;;15.45;6.38;;;;;;;-0.59;51.28;99819.28;10500179;28;20055;-55
2020/12/14 06:49:09;;;;;;;13.95;5.22;;;;;;;-0.58;50.61;99825.31;10497137;28;20055;-53
2020/12/14 06:54:10;;;;;;;10.10;4.15;;;;;;;-0.78;51.13;99818.31;10497477;28;20049;-52
2020/12/14 06:59:29;;;;;;;17.13;5.18;;;;;;;-0.86;51.18;99818.59;10497182;28;20052;-54
2020/12/14 07:04:39;;;;;;;13.75;5.90;;;;;;;-0.99;51.28;99815.59;10495905;28;20048;-53
2020/12/14 07:09:41;;;;;;;9.85;4.72;;;;;;;-1.05;51.30;99812.41;10497619;28;20040;-52
2020/12/14 07:14:46;;;;;;;10.88;4.97;;;;;;;-1.07;51.22;99812.47;10497714;28;20056;-55
2020/12/14 07:19:50;;;;;;;12.70;5.93;;;;;;;-1.08;51.45;99813.34;10496351;28;20097;-56
2020/12/14 07:25:01;;;;;;;17.52;5.53;;;;;;;-1.05;51.48;99810.66;10496384;28;20135;-58
2020/12/14 07:30:05;;;;;;;11.38;4.35;;;;;;;-1.03;51.48;99806.28;10494651;28;21081;-59
2020/12/14 07:35:08;;;;;;;11.80;4.43;;;;;;;-1.13;51.06;99812.69;10496974;28;20086;-56
2020/12/14 07:40:11;;;;;;;6.10;2.13;;;;;;;-1.27;51.50;99825.22;10495435;28;20048;-53
2020/12/14 07:45:17;;;;;;;16.93;5.87;;;;;;;-1.35;51.62;99822.06;10500255;28;20044;-54
2020/12/14 07:50:22;;;;;;;14.43;7.63;;;;;;;-1.29;51.53;99821.84;10497285;28;20109;-54
2020/12/14 07:55:26;;;;;;;15.82;7.07;;;;;;;-1.21;51.54;99825.00;10496635;28;20511;-57
2020/12/14 08:00:29;;;;;;;17.55;7.32;;;;;;;-1.11;51.31;99815.19;10497020;28;20485;-54
2020/12/14 08:05:30;;;;;;;17.00;5.63;;;;;;;-1.21;51.44;99809.53;10497157;28;20059;-53
2020/12/14 08:10:33;;;;;;;14.38;5.15;;;;;;;-1.24;51.46;99814.78;10496505;28;20040;-53
2020/12/14 08:15:37;;;;;;;13.65;5.50;;;;;;;-1.29;51.42;99821.84;10497162;28;20078;-54
2020/12/14 08:20:41;;;;;;;13.52;6.03;;;;;;;-1.33;51.53;99815.09;10496480;28;20036;-55
2020/12/14 08:25:45;;;;;;;13.13;4.82;;;;;;;-1.14;51.17;99817.88;10496046;28;20474;-53
2020/12/14 08:30:48;;;;;;;15.68;5.57;;;;;;;-1.04;51.14;99806.38;10500268;28;20577;-58
2020/12/14 08:35:51;;;;;;;12.23;5.28;;;;;;;-0.90;51.21;99798.09;10504168;28;20063;-55
2020/12/14 08:40:54;;;;;;;15.13;6.15;;;;;;;-0.84;50.70;99790.97;10504485;28;20125;-55
2020/12/14 08:45:59;;;;;;;9.55;4.55;;;;;;;-0.65;50.59;99785.97;10502335;28;20131;-54
2020/12/14 08:51:09;;;;;;;19.48;5.97;;;;;;;-0.39;50.59;99789.31;10502947;28;20361;-53
2020/12/14 08:56:12;;;;;;;16.27;5.70;;;;;;;-0.40;50.19;99778.13;10503029;28;20052;-54
2020/12/14 09:01:15;;;;;;;11.60;4.82;;;;;;;-0.49;50.31;99776.75;10505584;28;20056;-53
2020/12/14 09:06:28;;;;;;;17.23;7.03;;;;;;;-0.63;50.53;99776.44;10502510;28;20397;-53
2020/12/14 09:11:32;;;;;;;20.53;7.23;;;;;;;-0.80;50.30;99773.63;10502835;28;20040;-54
2020/12/14 09:16:35;;;;;;;21.83;8.63;;;;;;;-0.78;50.80;99762.34;10502901;28;20823;-54
2020/12/14 09:21:41;;;;;;;22.40;6.63;;;;;;;-0.69;50.60;99766.34;10503329;28;20405;-53
2020/12/14 09:26:45;;;;;;;19.92;7.63;;;;;;;-0.74;50.16;99757.91;10502005;28;20043;-59
2020/12/14 09:31:51;;;;;;;15.80;5.32;;;;;;;-0.98;50.67;99760.53;10500457;28;20059;-54
2020/12/14 09:36:54;;;;;;;19.02;7.28;;;;;;;-1.06;50.72;99757.38;10500681;28;20052;-54
2020/12/14 09:41:57;;;;;;;13.70;4.63;;;;;;;-1.16;50.86;99767.19;10500333;28;20420;-50
2020/12/14 09:47:01;;;;;;;22.45;6.45;;;;;;;-1.33;51.41;99759.22;10501642;28;20103;-54
2020/12/14 09:52:03;;;;;;;22.08;6.88;;;;;;;-1.37;51.58;99757.66;10500695;28;20082;-53
2020/12/14 09:57:05;;;;;;;18.67;5.90;;;;;;;-1.32;51.73;99755.75;10499746;28;20088;-51
2020/12/14 10:02:07;;;;;;;19.77;8.07;;;;;;;-1.28;51.57;99757.31;10500653;28;20474;-52
2020/12/14 10:07:09;;;;;;;16.38;6.68;;;;;;;-1.32;51.52;99757.50;10499178;28;20057;-52
2020/12/14 10:12:11;;;;;;;22.65;6.80;;;;;;;-1.40;51.96;99757.75;10499757;28;20040;-52
2020/12/14 10:17:13;;;;;;;20.13;7.97;;;;;;;-1.47;52.48;99761.47;10499813;28;20052;-53
2020/12/14 10:22:15;;;;;;;26.27;7.95;;;;;;;-1.29;52.10;99760.81;10499399;28;20055;-55
2020/12/14 10:27:16;;;;;;;14.88;6.03;;;;;;;-1.31;51.99;99751.44;10498632;28;20079;-52
2020/12/14 10:32:19;;;;;;;10.93;3.97;;;;;;;-1.40;52.51;99748.28;10497508;28;20488;-54
2020/12/14 10:37:21;;;;;;;19.45;7.00;;;;;;;-1.41;52.25;99745.78;10499346;28;20063;-56
2020/12/14 10:42:22;;;;;;;19.35;7.20;;;;;;;-1.42;52.47;99738.91;10500285;28;20051;-52
2020/12/14 10:47:25;;;;;;;23.40;8.23;;;;;;;-1.26;52.49;99739.19;10499468;28;20060;-54
2020/12/14 10:52:27;;;;;;;17.42;7.75;;;;;;;-1.15;52.24;99747.41;10497832;28;20498;-53
2020/12/14 10:57:28;;;;;;;20.08;7.85;;;;;;;-1.22;52.35;99753.69;10498219;28;20061;-54
2020/12/14 11:02:33;;;;;;;21.00;7.03;;;;;;;-1.29;52.52;99755.66;10498934;28;20078;-53
2020/12/14 11:07:35;;;;;;;24.55;7.35;;;;;;;-1.38;52.99;99745.66;10498103;28;20113;-53
2020/12/14 11:12:37;;;;;;;17.48;8.02;;;;;;;-1.40;52.68;99748.28;10498919;28;20049;-53
2020/12/14 11:17:40;;;;;;;22.05;8.35;;;;;;;-1.25;52.75;99738.31;10497640;28;20052;-51
2020/12/14 11:22:42;;;;;;;20.13;6.20;;;;;;;-1.18;52.40;99742.34;10498874;28;20048;-53
2020/12/14 11:27:44;;;;;;;17.42;6.25;;;;;;;-1.31;53.00;99744.53;10498311;28;20060;-54
2020/12/14 11:32:47;;;;;;;22.40;7.38;;;;;;;-1.30;52.95;99735.88;10497796;28;20392;-52
2020/12/14 11:37:49;;;;;;;23.53;8.93;;;;;;;-1.36;53.24;99738.69;10498606;28;20056;-51
2020/12/14 11:42:51;;;;;;;20.45;7.85;;;;;;;-1.37;53.61;99731.03;10498295;28;20040;-57
2020/12/14 11:47:54;;;;;;;19.77;5.88;;;;;;;-1.31;53.41;99730.81;10497934;28;20067;-57
2020/12/14 11:52:56;;;;;;;20.53;8.47;;;;;;;-1.29;53.40;99742.75;10497785;28;20036;-52
2020/12/14 11:57:58;;;;;;;19.15;7.57;;;;;;;-1.27;53.57;99729.78;10496560;28;20114;-53
2020/12/14 12:03:01;;;;;;;25.42;7.43;;;;;;;-1.32;53.87;99734.28;10498280;28;20052;-52
2020/12/14 12:08:02;;;;;;;11.95;4.75;;;;;;;-1.38;53.86;99724.19;10504459;28;20063;-54
2020/12/14 12:13:04;;;;;;;21.83;8.65;;;;;;;-1.49;54.27;99717.66;10504432;28;20056;-53
2020/12/14 12:18:06;;;;;;;27.67;9.55;;;;;;;-1.41;54.46;99720.81;10504295;28;20044;-52
2020/12/14 12:23:08;;;;;;;20.33;8.23;;;;;;;-1.34;54.08;99725.75;10503831;28;20048;-52
2020/12/14 12:28:10;;;;;;;27.45;8.07;;;;;;;-1.34;53.90;99720.59;10504557;28;20048;-53
2020/12/14 12:33:12;;;;;;;23.02;7.78;;;;;;;-1.25;53.32;99717.69;10504041;28;20056;-52
2020/12/14 12:38:14;;;;;;;22.95;9.52;;;;;;;-1.28;53.85;99721.22;10503776;28;20044;-52
2020/12/14 12:43:16;;;;;;;20.08;8.45;;;;;;;-1.26;53.65;99713.41;10503467;28;20072;-52
2020/12/14 12:48:18;;;;;;;19.80;6.78;;;;;;;-1.37;54.28;99712.97;10503315;28;20063;-51
2020/12/14 12:53:21;;;;;;;21.63;7.75;;;;;;;-1.54;54.63;99713.56;10503110;28;20063;-53
2020/12/14 12:58:23;;;;;;;25.33;9.38;;;;;;;-1.63;54.22;99712.19;10502077;28;20064;-55
2020/12/14 13:03:26;;;;;;;27.17;10.52;;;;;;;-1.59;54.26;99707.75;10502618;28;20049;-60
2020/12/14 13:08:27;;;;;;;23.67;9.55;;;;;;;-1.58;54.43;99712.84;10507491;28;20424;-53
2020/12/14 13:13:29;;;;;;;27.45;10.73;;;;;;;-1.50;54.30;99703.09;10502713;28;20044;-52
2020/12/14 13:24:40;;;;;;;29.63;7.97;;;;;;;-1.62;54.63;99686.31;10500736;28;20044;-55
2020/12/14 13:29:41;;;;;;;32.25;10.82;;;;;;;-1.72;54.96;99691.88;10499219;28;20048;-52
2020/12/14 13:34:43;;;;;;;28.13;9.25;;;;;;;-1.76;55.24;99685.13;10498693;28;20151;-53
2020/12/14 13:39:46;;;;;;;26.67;9.45;;;;;;;-1.75;55.13;99684.25;10499964;28;20106;-53
2020/12/14 13:44:47;;;;;;;29.52;8.13;;;;;;;-1.71;55.10;99675.50;10500543;28;20060;-54
2020/12/14 13:49:50;;;;;;;23.17;8.20;;;;;;;-1.76;54.98;99695.44;10500836;28;20548;-58
2020/12/14 13:55:11;;;;;;;25.35;8.25;;;;;;;-1.80;55.13;99692.13;10498839;28;20048;-53
2020/12/14 14:00:12;;;;;;;22.48;7.20;;;;;;;-1.85;55.22;99688.84;10496955;28;20048;-53
2020/12/14 14:05:14;;;;;;;28.02;9.13;;;;;;;-1.94;55.40;99678.88;10498143;28;20113;-54
2020/12/14 14:10:16;;;;;;;28.38;10.85;;;;;;;-2.04;55.46;99675.78;10497824;28;20101;-53
2020/12/14 14:15:18;;;;;;;17.55;6.45;;;;;;;-2.07;56.09;99670.72;10496208;28;20501;-54
2020/12/14 14:20:21;;;;;;;24.40;9.00;;;;;;;-2.13;56.19;99666.63;10494020;28;20036;-53
2020/12/14 14:25:24;;;;;;;26.75;8.82;;;;;;;-2.20;56.34;99656.59;10496176;28;20059;-54
2020/12/14 14:30:25;;;;;;;19.90;7.28;;;;;;;-2.14;56.17;99657.22;10496054;28;20040;-53
2020/12/14 14:35:29;;;;;;;34.83;8.90;;;;;;;-2.14;56.16;99651.22;10496670;28;20088;-53
2020/12/14 14:40:31;;;;;;;21.02;7.47;;;;;;;-2.14;56.06;99652.06;10495282;28;20072;-53
2020/12/14 14:45:33;;;;;;;36.07;10.83;;;;;;;-2.11;56.25;99661.44;10495624;28;20069;-52
2020/12/14 14:50:34;;;;;;;30.25;9.60;;;;;;;-2.08;56.23;99664.72;10497264;28;20090;-52
2020/12/14 14:55:37;;;;;;;24.45;8.00;;;;;;;-2.01;55.90;99646.50;10499113;28;20462;-53
2020/12/14 15:00:38;;;;;;;27.58;9.80;;;;;;;-1.98;55.97;99656.69;10499181;28;20041;-52
2020/12/14 15:05:40;;;;;;;28.33;9.23;;;;;;;-2.05;56.37;99648.34;10494546;28;20946;-53
2020/12/14 15:10:44;;;;;;;25.20;10.38;;;;;;;-2.00;56.36;99646.47;10497786;28;20083;-52
2020/12/14 15:15:45;;;;;;;;;;;;;;;-1.99;55.98;99644.72;10500130;28;20063;-54
2020/12/14 15:20:47;;;;;;;27.83;9.98;;;;;;;-1.99;56.09;99644.72;10499144;28;19964;-52
2020/12/14 15:25:49;;;;;;;17.23;6.65;;;;;;;-1.93;55.86;99647.91;10497567;28;20094;-53
2020/12/14 15:30:51;;;;;;;15.45;5.28;;;;;;;-1.97;55.99;99648.94;10497779;28;20040;-52
2020/12/14 15:35:54;;;;;;;29.70;10.82;;;;;;;-2.03;56.32;99635.38;10473181;28;20471;-52
2020/12/14 15:40:57;;;;;;;31.58;10.88;;;;;;;-2.06;56.34;99626.06;10459782;28;20045;-59
2020/12/14 15:45:58;;;;;;;24.63;11.70;;;;;;;-2.14;56.36;99623.72;10463836;28;20115;-53
2020/12/14 15:51:00;;;;;;;29.73;11.90;;;;;;;-2.20;56.32;99641.13;10464026;28;20044;-52
2020/12/14 15:56:03;;;;;;;26.75;10.63;;;;;;;-2.16;56.58;99616.94;10463429;28;20053;-52
2020/12/14 16:01:05;;;;;;;25.83;9.50;;;;;;;-2.14;56.28;99612.59;10496553;28;20416;-52
2020/12/14 16:06:06;;;;;;;28.23;9.88;;;;;;;-2.09;56.31;99608.97;10504442;28;20114;-52
2020/12/14 16:11:09;;;;;;;33.55;10.48;;;;;;;-2.06;56.30;99618.34;10504401;28;20094;-52
2020/12/14 16:16:13;;;;;;;23.05;8.05;;;;;;;-2.13;56.63;99622.00;10504713;28;20469;-53
2020/12/14 16:21:18;;;;;;;35.83;12.95;;;;;;;-2.19;56.33;99591.31;10487931;28;20059;-52
2020/12/14 16:26:20;;;;;;;32.45;10.77;;;;;;;-2.20;56.68;99589.63;10504743;28;20056;-52
2020/12/14 16:31:22;;;;;;;26.23;10.10;;;;;;;-2.11;56.59;99590.16;10505010;28;20365;-52
2020/12/14 16:36:24;;;;;;;28.75;11.18;;;;;;;-2.09;56.63;99588.38;10504815;28;20076;-52
2020/12/14 16:41:26;;;;;;;30.70;11.52;;;;;;;-2.15;56.82;99604.03;10504299;28;20040;-55
2020/12/14 16:46:30;;;;;;;22.50;7.50;;;;;;;-2.13;56.64;99591.09;10503233;28;20492;-53
2020/12/14 16:51:32;;;;;;;24.77;7.45;;;;;;;-2.19;57.02;99589.56;10502363;28;20389;-53
2020/12/14 16:56:34;;;;;;;31.92;10.98;;;;;;;-2.21;57.10;99587.97;10502910;28;20099;-53
2020/12/14 17:01:36;;;;;;;27.90;11.02;;;;;;;-2.16;57.03;99596.34;10503515;28;20076;-53
2020/12/14 17:06:41;;;;;;;24.75;10.50;;;;;;;-2.18;57.27;99582.69;10502128;28;20052;-53
2020/12/14 17:11:43;;;;;;;23.27;7.35;;;;;;;-2.17;56.93;99574.06;10504187;28;20045;-52
2020/12/14 17:16:46;;;;;;;32.05;10.82;;;;;;;-2.15;57.08;99577.44;10502429;28;20087;-53
2020/12/14 17:21:47;;;;;;;28.08;8.68;;;;;;;-2.11;57.02;99569.53;10502356;28;20076;-53
2020/12/14 17:26:50;;;;;;;26.45;10.82;;;;;;;-2.02;56.75;99563.22;10502796;28;20106;-54
2020/12/14 17:31:54;;;;;;;28.83;10.40;;;;;;;-1.97;56.79;99579.38;10501467;28;20054;-53
2020/12/14 17:36:55;;;;;;;36.80;13.00;;;;;;;-2.09;57.13;99566.94;10498578;28;20059;-54
2020/12/14 17:41:58;;;;;;;26.60;10.32;;;;;;;-2.12;56.77;99578.16;10490358;28;20072;-56
2020/12/14 17:46:59;;;;;;;34.25;11.88;;;;;;;-2.16;56.97;99566.28;10503114;28;20109;-53
2020/12/14 17:52:02;;;;;;;16.85;5.43;;;;;;;-2.19;57.08;99570.69;10501091;28;20068;-52
2020/12/14 17:57:06;;;;;;;31.67;11.20;;;;;;;-2.18;57.05;99578.38;10501680;28;20093;-53
2020/12/14 18:02:09;;;;;;;;;;;;;;;-2.17;56.96;99569.75;10500604;28;20050;-55
2020/12/14 18:07:11;;;;;;;34.25;11.57;;;;;;;-2.11;56.99;99559.25;10501365;28;19964;-57
2020/12/14 18:12:14;;;;;;;22.63;7.55;;;;;;;-2.08;56.74;99578.91;10499037;28;20047;-55
2020/12/14 18:17:16;;;;;;;30.92;11.55;;;;;;;-2.11;57.09;99573.84;10499337;28;20062;-53
2020/12/14 18:22:17;;;;;;;20.48;7.90;;;;;;;-2.16;56.96;99561.13;10500641;28;20048;-54
2020/12/14 18:27:20;;;;;;;24.90;9.30;;;;;;;-2.21;57.26;99564.78;10499161;28;20048;-55
2020/12/14 21:25:13;;;;;;;22.88;9.10;;;;;;;-1.48;57.95;99483.88;10502486;28;20044;-51
2020/12/14 21:30:15;;;;;;;17.83;6.07;;;;;;;-1.41;57.63;99486.19;10501737;28;20823;-51
2020/12/14 21:35:17;;;;;;;17.77;4.93;;;;;;;-1.42;57.76;99492.25;10502330;28;20149;-52
2020/12/14 21:40:18;;;;;;;15.60;5.88;;;;;;;-1.45;57.88;99482.06;10501507;28;20053;-52
2020/12/14 21:45:21;;;;;;;24.92;8.70;;;;;;;-1.37;57.82;99468.00;10503003;28;20040;-51
2020/12/14 21:50:22;;;;;;;24.27;8.17;;;;;;;-1.34;57.80;99473.88;10501549;28;20036;-51
2020/12/14 21:55:25;;;;;;;19.63;7.38;;;;;;;-1.22;57.67;99465.63;10501337;28;20152;-52
2020/12/14 22:00:28;;;;;;;24.23;9.80;;;;;;;-1.11;57.75;99456.63;10499569;28;20044;-52
2020/12/14 22:05:32;;;;;;;12.83;5.37;;;;;;;-0.99;57.35;99463.84;10501086;28;20048;-51
2020/12/14 22:10:34;;;;;;;20.25;9.48;;;;;;;-1.02;57.48;99451.91;10499248;28;20082;-52
2020/12/14 22:15:39;;;;;;;23.58;9.35;;;;;;;-1.01;57.57;99432.97;10501071;28;20052;-56
2020/12/14 22:20:41;;;;;;;26.92;9.30;;;;;;;-1.00;57.23;99444.94;10500298;28;20447;-52
2020/12/14 22:25:43;;;;;;;23.60;9.32;;;;;;;-0.89;57.16;99433.31;10500035;28;20045;-51
2020/12/14 22:30:46;;;;;;;23.83;8.02;;;;;;;-0.78;57.26;99436.28;10498988;28;20473;-52
2020/12/14 22:35:47;;;;;;;16.13;5.60;;;;;;;-0.89;57.09;99429.03;10500177;28;20053;-52
2020/12/14 22:40:49;;;;;;;22.60;8.93;;;;;;;-0.95;57.31;99424.13;10499915;28;20048;-52
2020/12/14 22:45:51;;;;;;;24.23;9.45;;;;;;;-0.84;57.33;99426.25;10502158;28;20059;-51
2020/12/14 22:50:53;;;;;;;28.48;10.63;;;;;;;-0.78;57.19;99420.81;10498495;28;20147;-51
2020/12/14 22:55:56;;;;;;;19.55;8.50;;;;;;;-0.71;57.20;99422.22;10508465;28;20138;-51
2020/12/14 23:00:58;;;;;;;17.55;6.88;;;;;;;-0.67;57.24;99428.09;10496454;28;20059;-52
2020/12/14 23:06:00;;;;;;;17.52;7.60;;;;;;;-0.72;57.07;99420.53;10498539;28;20048;-52
2020/12/14 23:11:02;;;;;;;22.20;8.75;;;;;;;-0.78;57.55;99418.22;10500464;28;20044;-52
2020/12/14 23:16:04;;;;;;;23.75;8.13;;;;;;;-0.80;57.71;99414.88;10498980;28;20041;-53
2020/12/14 23:21:06;;;;;;;16.40;6.07;;;;;;;-0.75;57.50;99412.94;10498996;28;20400;-52
2020/12/14 23:26:08;;;;;;;18.98;6.60;;;;;;;-0.80;57.53;99410.56;10500623;28;20057;-52
2020/12/14 23:31:10;;;;;;;13.73;4.28;;;;;;;-0.89;57.21;99407.53;10499366;28;20049;-53
2020/12/14 23:36:13;;;;;;;16.77;7.78;;;;;;;-0.99;58.00;99405.34;10498095;28;20560;-52
2020/12/14 23:41:15;;;;;;;21.55;9.20;;;;;;;-0.96;57.78;99392.31;10497534;28;20040;-52
2020/12/14 23:46:17;;;;;;;12.52;4.32;;;;;;;-0.94;57.86;99395.66;10498923;28;20052;-53
2020/12/14 23:51:19;;;;;;;17.40;8.52;;;;;;;-0.95;58.34;99390.59;10497677;28;20053;-53
2020/12/14 23:56:20;;;;;;;15.75;6.05;;;;;;;-0.89;58.03;99387.75;10496991;28;20060;-52
